createdAt,value
2019-04-25T00:00:47.134Z,17.23
2019-04-25T00:03:24.183Z,17.23
2019-04-25T00:06:00.000Z,17.25
2019-04-25T00:08:40.947Z,17.26
2019-04-25T00:11:24.122Z,17.25
2019-04-25T00:14:04.402Z,17.29
2019-04-25T00:16:42.809Z,17.26
2019-04-25T00:19:18.432Z,17.21
2019-04-25T00:22:01.847Z,17.16
2019-04-25T00:24:49.892Z,17.14
2019-04-25T00:27:27.732Z,17.11
2019-04-25T00:30:09.323Z,17.04
2019-04-25T00:32:51.115Z,17.02
2019-04-25T00:35:26.429Z,16.98
2019-04-25T00:38:02.364Z,16.98
2019-04-25T00:40:37.684Z,16.99
2019-04-25T00:43:16.404Z,17.01
2019-04-25T00:45:54.556Z,17.04
2019-04-25T00:48:35.630Z,17.05
2019-04-25T00:51:11.813Z,17.05
2019-04-25T00:53:48.087Z,17.04
2019-04-25T00:56:24.318Z,16.98
2019-04-25T00:59:05.859Z,16.92
2019-04-25T01:01:57.141Z,16.87
2019-04-25T01:04:34.098Z,16.82
2019-04-25T01:07:09.187Z,16.78
2019-04-25T01:09:44.349Z,16.75
2019-04-25T01:12:21.719Z,16.74
2019-04-25T01:14:58.337Z,16.72
2019-04-25T01:17:33.627Z,16.68
2019-04-25T01:20:09.266Z,16.67
2019-04-25T01:22:45.694Z,16.64
2019-04-25T01:25:21.468Z,16.62
2019-04-25T01:27:58.057Z,16.64
2019-04-25T01:30:34.012Z,16.66
2019-04-25T01:33:10.133Z,16.62
2019-04-25T01:36:03.275Z,16.54
2019-04-25T01:38:45.354Z,16.62
2019-04-25T01:41:34.830Z,16.60
2019-04-25T01:44:18.170Z,16.60
2019-04-25T01:46:56.453Z,16.57
2019-04-25T01:49:33.993Z,16.52
2019-04-25T01:52:13.723Z,16.49
2019-04-25T01:54:49.296Z,16.46
2019-04-25T01:57:25.766Z,16.49
2019-04-25T02:00:01.890Z,16.51
2019-04-25T02:02:38.285Z,16.53
2019-04-25T02:05:14.528Z,16.51
2019-04-25T02:07:51.386Z,16.52
2019-04-25T02:10:27.170Z,16.54
2019-04-25T02:13:05.777Z,16.58
2019-04-25T02:15:41.056Z,16.59
2019-04-25T02:18:18.517Z,16.60
2019-04-25T02:20:56.564Z,16.59
2019-04-25T02:23:30.684Z,16.55
2019-04-25T02:26:15.633Z,16.53
2019-04-25T02:28:43.808Z,16.57
2019-04-25T02:31:19.019Z,16.61
2019-04-25T02:33:59.611Z,16.64
2019-04-25T02:36:30.921Z,16.70
2019-04-25T02:39:11.436Z,16.74
2019-04-25T02:41:48.157Z,16.75
2019-04-25T02:44:24.861Z,16.73
2019-04-25T02:47:04.369Z,16.75
2019-04-25T02:49:41.875Z,16.72
2019-04-25T02:52:30.137Z,16.68
2019-04-25T02:55:10.759Z,16.65
2019-04-25T02:57:45.045Z,16.62
2019-04-25T03:00:25.982Z,16.62
2019-04-25T03:03:03.391Z,16.62
2019-04-25T03:05:39.456Z,16.59
2019-04-25T03:08:14.601Z,16.58
2019-04-25T03:10:50.615Z,16.57
2019-04-25T03:13:25.838Z,16.57
2019-04-25T03:16:02.400Z,16.54
2019-04-25T03:18:59.393Z,16.52
2019-04-25T03:21:36.821Z,16.49
2019-04-25T03:24:16.456Z,16.48
2019-04-25T03:26:51.242Z,16.49
2019-04-25T03:29:26.512Z,16.51
2019-04-25T03:32:02.854Z,16.53
2019-04-25T03:34:38.419Z,16.52
2019-04-25T03:37:14.086Z,16.54
2019-04-25T03:39:49.936Z,16.54
2019-04-25T03:42:26.092Z,16.54
2019-04-25T03:45:01.547Z,16.52
2019-04-25T03:47:38.875Z,16.52
2019-04-25T03:50:14.088Z,16.52
2019-04-25T03:52:49.340Z,16.49
2019-04-25T03:55:26.289Z,16.46
2019-04-25T03:58:04.637Z,16.37
2019-04-25T04:00:40.106Z,16.28
2019-04-25T04:03:15.702Z,16.21
2019-04-25T04:05:54.038Z,16.12
2019-04-25T04:08:30.856Z,16.01
2019-04-25T04:11:07.401Z,15.93
2019-04-25T04:13:44.003Z,15.90
2019-04-25T04:16:26.088Z,15.84
2019-04-25T04:19:04.950Z,15.79
2019-04-25T04:21:53.497Z,15.76
2019-04-25T04:24:30.251Z,15.72
2019-04-25T04:27:10.751Z,15.68
2019-04-25T04:29:46.018Z,15.65
2019-04-25T04:32:21.264Z,15.65
2019-04-25T04:34:57.930Z,15.60
2019-04-25T04:37:33.271Z,15.59
2019-04-25T04:40:16.019Z,15.59
2019-04-25T04:42:50.820Z,15.55
2019-04-25T04:45:26.210Z,15.51
2019-04-25T04:48:03.302Z,15.49
2019-04-25T04:50:38.866Z,15.44
2019-04-25T04:53:45.116Z,15.38
2019-04-25T04:56:23.919Z,15.35
2019-04-25T04:58:59.433Z,15.32
2019-04-25T05:01:36.516Z,15.27
2019-04-25T05:04:14.935Z,15.23
2019-04-25T05:06:54.530Z,15.22
2019-04-25T05:09:29.651Z,15.20
2019-04-25T05:12:04.830Z,15.20
2019-04-25T05:14:40.391Z,15.23
2019-04-25T05:17:16.511Z,15.22
2019-04-25T05:19:53.245Z,15.21
2019-04-25T05:22:29.497Z,15.20
2019-04-25T05:25:06.252Z,15.19
2019-04-25T05:27:57.773Z,15.16
2019-04-25T05:30:23.963Z,15.17
2019-04-25T05:32:58.958Z,15.16
2019-04-25T05:35:35.155Z,15.15
2019-04-25T05:38:10.601Z,15.16
2019-04-25T05:40:57.003Z,15.14
2019-04-25T05:43:33.413Z,15.19
2019-04-25T05:46:08.812Z,15.26
2019-04-25T05:48:43.933Z,15.27
2019-04-25T05:51:19.549Z,15.39
2019-04-25T05:53:57.651Z,15.48
2019-04-25T05:56:33.765Z,15.69
2019-04-25T05:59:09.249Z,15.86
2019-04-25T06:01:44.343Z,16.02
2019-04-25T06:04:19.809Z,16.20
2019-04-25T06:06:55.369Z,16.30
2019-04-25T06:09:39.369Z,16.46
2019-04-25T06:12:20.610Z,16.63
2019-04-25T06:14:56.173Z,16.81
2019-04-25T06:17:35.009Z,17.02
2019-04-25T06:20:13.421Z,17.13
2019-04-25T06:23:00.379Z,17.19
2019-04-25T06:25:39.752Z,17.22
2019-04-25T06:28:16.459Z,17.42
2019-04-25T06:30:51.567Z,17.55
2019-04-25T06:33:27.106Z,17.68
2019-04-25T06:36:04.044Z,17.79
2019-04-25T06:38:39.356Z,17.82
2019-04-25T06:41:16.264Z,17.80
2019-04-25T06:43:54.148Z,17.81
2019-04-25T06:46:48.532Z,17.83
2019-04-25T06:49:29.546Z,17.89
2019-04-25T06:52:05.037Z,17.99
2019-04-25T06:54:40.674Z,18.12
2019-04-25T06:57:16.715Z,18.02
2019-04-25T06:59:53.234Z,18.09
2019-04-25T07:02:29.498Z,18.26
2019-04-25T07:05:08.268Z,18.42
2019-04-25T07:07:45.483Z,18.61
2019-04-25T07:10:21.024Z,18.96
2019-04-25T07:12:56.594Z,19.52
2019-04-25T07:15:33.782Z,20.44
2019-04-25T07:18:09.901Z,21.63
2019-04-25T07:20:46.319Z,22.76
2019-04-25T07:23:23.672Z,23.66
2019-04-25T07:26:03.662Z,24.10
2019-04-25T07:28:49.891Z,24.59
2019-04-25T07:31:47.233Z,24.61
2019-04-25T07:34:27.417Z,24.47
2019-04-25T07:37:03.453Z,24.01
2019-04-25T07:39:44.173Z,24.48
2019-04-25T07:42:19.809Z,24.52
2019-04-25T07:44:55.402Z,24.51
2019-04-25T07:47:31.542Z,25.31
2019-04-25T07:50:10.419Z,25.72
2019-04-25T07:52:50.469Z,25.57
2019-04-25T07:55:27.775Z,25.84
2019-04-25T07:58:14.264Z,25.99
2019-04-25T08:00:49.724Z,25.82
2019-04-25T08:03:26.118Z,25.68
2019-04-25T08:06:05.161Z,25.83
2019-04-25T08:08:46.938Z,26.34
2019-04-25T08:11:24.633Z,26.56
2019-04-25T08:14:16.185Z,27.03
2019-04-25T08:16:56.667Z,27.74
2019-04-25T08:19:33.517Z,28.68
2019-04-25T08:22:09.982Z,28.68
2019-04-25T08:24:53.845Z,28.17
2019-04-25T08:27:33.473Z,29.29
2019-04-25T08:30:09.312Z,28.96
2019-04-25T08:32:44.952Z,29.07
2019-04-25T08:35:24.124Z,28.42
2019-04-25T08:38:00.580Z,29.11
2019-04-25T08:40:40.426Z,29.11
2019-04-25T08:43:16.772Z,29.11
2019-04-25T08:45:55.969Z,28.73
2019-04-25T08:48:35.826Z,28.49
2019-04-25T08:51:18.423Z,27.93
2019-04-25T08:54:03.838Z,27.30
2019-04-25T08:56:43.987Z,27.64
2019-04-25T08:59:44.253Z,28.55
2019-04-25T09:02:36.161Z,28.26
2019-04-25T09:05:25.100Z,26.96
2019-04-25T09:08:01.965Z,27.15
2019-04-25T09:10:40.146Z,28.36
2019-04-25T09:13:16.015Z,28.70
2019-04-25T09:15:59.733Z,29.04
2019-04-25T09:18:38.138Z,29.96
2019-04-25T09:21:25.871Z,31.03
2019-04-25T09:24:01.324Z,31.22
2019-04-25T09:26:38.354Z,32.05
2019-04-25T09:29:19.405Z,32.52
2019-04-25T09:32:13.823Z,32.22
2019-04-25T09:35:45.746Z,31.88
2019-04-25T09:39:17.437Z,31.82
2019-04-25T09:42:01.308Z,31.52
2019-04-25T09:48:36.348Z,32.18
2019-04-25T09:51:33.935Z,32.91
2019-04-25T09:54:29.396Z,32.07
2019-04-25T09:57:18.401Z,32.11
2019-04-25T09:59:54.875Z,31.28
2019-04-25T10:02:30.167Z,32.69
2019-04-25T10:05:07.498Z,33.04
2019-04-25T10:07:48.981Z,33.09
2019-04-25T10:10:33.709Z,33.13
2019-04-25T10:13:14.411Z,33.60
2019-04-25T10:16:09.792Z,33.67
2019-04-25T10:18:49.803Z,34.07
2019-04-25T10:21:26.676Z,33.93
2019-04-25T10:24:04.145Z,33.69
2019-04-25T10:26:46.325Z,33.54
2019-04-25T10:29:44.480Z,33.35
2019-04-25T10:32:15.059Z,32.45
2019-04-25T10:35:04.314Z,32.37
2019-04-25T10:37:43.724Z,33.12
2019-04-25T10:40:29.079Z,31.98
2019-04-25T10:43:07.014Z,33.12
2019-04-25T10:45:49.118Z,34.76
2019-04-25T10:48:29.480Z,35.27
2019-04-25T10:51:08.023Z,34.74
2019-04-25T10:53:49.846Z,34.47
2019-04-25T10:56:27.723Z,35.09
2019-04-25T10:59:09.722Z,35.89
2019-04-25T11:01:58.497Z,35.44
2019-04-25T11:04:41.902Z,34.30
2019-04-25T11:07:23.377Z,34.70
2019-04-25T11:10:20.038Z,34.36
2019-04-25T11:12:55.578Z,34.72
2019-04-25T11:15:35.688Z,35.15
2019-04-25T11:18:15.236Z,34.36
2019-04-25T11:21:00.576Z,34.20
2019-04-25T11:23:41.415Z,33.64
2019-04-25T11:26:17.807Z,32.86
2019-04-25T11:28:54.526Z,32.92
2019-04-25T11:31:34.321Z,32.69
2019-04-25T11:34:15.617Z,32.85
2019-04-25T11:36:51.466Z,33.07
2019-04-25T11:39:40.446Z,33.00
2019-04-25T11:42:21.074Z,31.98
2019-04-25T11:45:05.917Z,32.55
2019-04-25T11:47:46.225Z,32.40
2019-04-25T11:50:22.749Z,33.29
2019-04-25T11:53:04.815Z,34.05
2019-04-25T11:55:40.497Z,34.27
2019-04-25T11:58:16.893Z,34.26
2019-04-25T12:00:54.158Z,34.78
2019-04-25T12:03:31.391Z,34.78
2019-04-25T12:06:11.159Z,34.63
2019-04-25T12:08:49.159Z,35.15
2019-04-25T12:11:31.031Z,35.60
2019-04-25T12:14:08.972Z,35.17
2019-04-25T12:16:48.703Z,35.12
2019-04-25T12:19:34.504Z,36.63
2019-04-25T12:22:03.901Z,37.19
2019-04-25T12:24:44.523Z,37.43
2019-04-25T12:27:20.609Z,36.98
2019-04-25T12:29:57.340Z,36.68
2019-04-25T12:32:35.279Z,36.99
2019-04-25T12:35:10.783Z,36.68
2019-04-25T12:37:48.015Z,37.01
2019-04-25T12:40:31.754Z,37.45
2019-04-25T12:43:07.031Z,37.25
2019-04-25T12:46:01.919Z,38.58
2019-04-25T12:48:45.897Z,38.58
2019-04-25T12:51:22.000Z,37.92
2019-04-25T12:54:14.956Z,37.67
2019-04-25T12:56:52.210Z,38.04
2019-04-25T12:59:29.567Z,38.57
2019-04-25T13:02:07.685Z,39.17
2019-04-25T13:04:47.893Z,38.64
2019-04-25T13:07:24.716Z,39.57
2019-04-25T13:10:02.007Z,39.34
2019-04-25T13:12:39.137Z,38.46
2019-04-25T13:15:19.311Z,37.06
2019-04-25T13:17:58.097Z,36.05
2019-04-25T13:20:33.486Z,35.93
2019-04-25T13:23:11.676Z,36.16
2019-04-25T13:25:50.928Z,36.50
2019-04-25T13:28:37.457Z,36.78
2019-04-25T13:31:37.488Z,37.32
2019-04-25T13:34:35.689Z,38.45
2019-04-25T13:37:01.041Z,37.77
2019-04-25T13:39:37.541Z,38.36
2019-04-25T13:42:14.330Z,37.39
2019-04-25T13:44:54.492Z,38.06
2019-04-25T13:47:31.943Z,38.35
2019-04-25T13:50:17.631Z,38.55
2019-04-25T13:52:58.211Z,39.18
2019-04-25T13:55:37.599Z,39.29
2019-04-25T13:58:14.443Z,39.17
2019-04-25T14:00:51.586Z,38.24
2019-04-25T14:03:29.377Z,37.83
2019-04-25T14:06:09.337Z,36.70
2019-04-25T14:08:45.464Z,37.18
2019-04-25T14:11:24.124Z,37.22
2019-04-25T14:14:08.234Z,37.71
2019-04-25T14:16:51.468Z,38.46
2019-04-25T14:19:50.588Z,37.81
2019-04-25T14:22:30.573Z,38.90
2019-04-25T14:25:06.602Z,38.64
2019-04-25T14:27:47.826Z,37.87
2019-04-25T14:30:36.751Z,37.84
2019-04-25T14:33:15.664Z,37.44
2019-04-25T14:35:53.314Z,38.18
2019-04-25T14:38:30.232Z,38.64
2019-04-25T14:41:08.190Z,38.95
2019-04-25T14:43:46.415Z,38.58
2019-04-25T14:46:26.408Z,38.90
2019-04-25T14:49:07.010Z,38.12
2019-04-25T14:51:43.647Z,37.32
2019-04-25T14:54:28.575Z,36.50
2019-04-25T14:57:12.021Z,36.47
2019-04-25T14:59:47.257Z,36.58
2019-04-25T15:02:32.745Z,36.96
2019-04-25T15:05:15.817Z,36.85
2019-04-25T15:07:57.986Z,36.53
2019-04-25T15:10:42.483Z,37.35
2019-04-25T15:13:18.984Z,38.12
2019-04-25T15:15:55.356Z,38.29
2019-04-25T15:18:36.650Z,38.07
2019-04-25T15:21:14.834Z,37.15
2019-04-25T15:24:00.098Z,36.23
2019-04-25T15:26:33.216Z,36.95
2019-04-25T15:29:24.024Z,37.19
2019-04-25T15:31:59.239Z,37.48
2019-04-25T15:34:38.080Z,36.99
2019-04-25T15:37:35.905Z,37.12
2019-04-25T15:40:34.418Z,36.85
2019-04-25T15:43:11.697Z,36.41
2019-04-25T15:45:50.007Z,36.80
2019-04-25T15:48:29.655Z,35.92
2019-04-25T15:51:08.233Z,35.12
2019-04-25T15:53:43.820Z,35.08
2019-04-25T15:56:19.490Z,35.76
2019-04-25T15:58:56.826Z,35.60
2019-04-25T16:01:33.203Z,35.02
2019-04-25T16:04:08.459Z,34.95
2019-04-25T16:06:48.885Z,34.94
2019-04-25T16:09:32.545Z,34.75
2019-04-25T16:12:10.774Z,34.02
2019-04-25T16:14:48.158Z,34.42
2019-04-25T16:17:27.238Z,34.91
2019-04-25T16:20:04.593Z,34.52
2019-04-25T16:22:43.058Z,34.47
2019-04-25T16:25:21.292Z,33.69
2019-04-25T16:27:58.624Z,33.45
2019-04-25T16:30:34.577Z,33.39
2019-04-25T16:33:11.036Z,32.70
2019-04-25T16:35:52.155Z,31.82
2019-04-25T16:41:34.445Z,31.01
2019-04-25T16:44:25.058Z,30.55
2019-04-25T16:47:04.313Z,30.36
2019-04-25T16:49:50.680Z,29.79
2019-04-25T16:52:41.197Z,29.34
2019-04-25T16:55:20.601Z,28.77
2019-04-25T16:58:06.724Z,28.24
2019-04-25T17:00:52.297Z,28.08
2019-04-25T17:03:35.337Z,28.24
2019-04-25T17:06:15.597Z,28.17
2019-04-25T17:08:56.388Z,27.71
2019-04-25T17:11:56.859Z,27.24
2019-04-25T17:14:37.766Z,26.87
2019-04-25T17:17:27.690Z,26.35
2019-04-25T17:20:28.102Z,25.94
2019-04-25T17:23:15.990Z,25.94
2019-04-25T17:26:00.999Z,25.81
2019-04-25T17:28:42.575Z,25.70
2019-04-25T17:31:24.350Z,25.62
2019-04-25T17:34:11.160Z,25.52
2019-04-25T17:37:07.458Z,25.41
2019-04-25T17:39:57.656Z,25.35
2019-04-25T17:42:41.010Z,25.30
2019-04-25T17:45:26.970Z,25.23
2019-04-25T17:48:05.401Z,25.10
2019-04-25T17:50:43.893Z,24.92
2019-04-25T17:53:25.068Z,24.78
2019-04-25T17:56:02.578Z,24.65
2019-04-25T17:58:40.081Z,24.50
2019-04-25T18:01:18.401Z,24.34
2019-04-25T18:03:53.823Z,24.20
2019-04-25T18:06:35.629Z,24.09
2019-04-25T18:09:18.489Z,24.00
2019-04-25T18:11:56.168Z,23.88
2019-04-25T18:14:55.468Z,23.80
2019-04-25T18:17:38.048Z,23.74
2019-04-25T18:20:29.709Z,23.66
2019-04-25T18:23:08.281Z,23.55
2019-04-25T18:26:05.796Z,23.47
2019-04-25T18:28:45.864Z,23.34
2019-04-25T18:31:22.671Z,23.25
2019-04-25T18:34:03.258Z,23.12
2019-04-25T18:36:48.158Z,22.85
2019-04-25T18:39:28.984Z,22.85
2019-04-25T18:42:08.262Z,22.90
2019-04-25T18:44:44.841Z,22.78
2019-04-25T18:47:20.293Z,22.71
2019-04-25T18:50:00.947Z,22.66
2019-04-25T18:52:45.206Z,22.60
2019-04-25T18:55:41.337Z,22.36
2019-04-25T18:58:25.725Z,22.36
2019-04-25T19:01:24.274Z,22.34
2019-04-25T19:04:11.134Z,22.29
2019-04-25T19:06:56.169Z,22.20
2019-04-25T19:09:23.546Z,22.14
2019-04-25T19:12:03.007Z,22.09
2019-04-25T19:14:39.839Z,21.99
2019-04-25T19:17:15.325Z,21.92
2019-04-25T19:19:51.955Z,21.89
2019-04-25T19:22:33.531Z,21.84
2019-04-25T19:25:14.508Z,21.76
2019-04-25T19:27:49.746Z,21.76
2019-04-25T19:30:32.459Z,21.71
2019-04-25T19:33:11.212Z,21.68
2019-04-25T19:35:47.706Z,21.63
2019-04-25T19:38:23.072Z,21.55
2019-04-25T19:41:10.416Z,21.54
2019-04-25T19:43:51.050Z,21.49
2019-04-25T19:46:28.483Z,21.48
2019-04-25T19:49:10.277Z,21.49
2019-04-25T19:51:47.251Z,21.44
2019-04-25T19:54:23.912Z,21.45
2019-04-25T19:57:02.057Z,21.41
2019-04-25T19:59:38.384Z,21.36
2019-04-25T20:02:16.568Z,21.35
2019-04-25T20:05:00.138Z,21.31
2019-04-25T20:07:37.072Z,21.31
2019-04-25T20:10:16.921Z,21.25
2019-04-25T20:12:55.146Z,21.27
2019-04-25T20:15:34.618Z,21.25
2019-04-25T20:18:10.002Z,21.22
2019-04-25T20:20:46.031Z,21.22
2019-04-25T20:23:22.174Z,21.18
2019-04-25T20:25:58.207Z,21.16
2019-04-25T20:28:34.066Z,21.12
2019-04-25T20:31:10.012Z,21.12
2019-04-25T20:33:46.847Z,21.19
2019-04-25T20:36:23.563Z,21.11
2019-04-25T20:39:00.097Z,21.06
2019-04-25T20:41:37.389Z,21.12
2019-04-25T20:44:16.791Z,21.03
2019-04-25T20:46:57.874Z,20.99
2019-04-25T20:49:34.286Z,20.94
2019-04-25T20:52:10.667Z,20.89
2019-04-25T20:54:48.000Z,20.87
2019-04-25T20:57:35.306Z,20.87
2019-04-25T21:00:12.701Z,20.78
2019-04-25T21:02:51.933Z,20.75
2019-04-25T21:05:30.264Z,20.65
2019-04-25T21:08:08.219Z,20.61
2019-04-25T21:10:43.417Z,20.62
2019-04-25T21:13:22.149Z,20.53
2019-04-25T21:16:00.162Z,20.55
2019-04-25T21:18:51.495Z,20.56
2019-04-25T21:21:26.668Z,20.53
2019-04-25T21:24:03.744Z,20.49
2019-04-25T21:26:38.805Z,20.52
2019-04-25T21:29:14.679Z,20.50
2019-04-25T21:31:51.209Z,20.48
2019-04-25T21:34:30.185Z,20.49
2019-04-25T21:37:07.990Z,20.42
2019-04-25T21:39:49.284Z,20.41
2019-04-25T21:45:54.554Z,20.34
2019-04-25T21:48:32.032Z,20.32
2019-04-25T21:54:53.101Z,20.17
2019-04-25T22:00:56.646Z,20.04
2019-04-25T22:03:33.472Z,19.93
2019-04-25T22:06:17.715Z,19.93
2019-04-25T22:08:54.310Z,19.92
2019-04-25T22:11:36.713Z,19.89
2019-04-25T22:14:21.866Z,19.87
2019-04-25T22:17:07.980Z,19.89
2019-04-25T22:19:45.297Z,19.82
2019-04-25T22:22:32.795Z,19.80
2019-04-25T22:25:17.364Z,19.80
2019-04-25T22:27:54.548Z,19.79
2019-04-25T22:30:30.794Z,19.75
2019-04-25T22:33:08.421Z,19.71
2019-04-25T22:35:45.162Z,19.71
2019-04-25T22:38:24.933Z,19.75
2019-04-25T22:41:01.231Z,19.73
2019-04-25T22:43:43.136Z,19.69
2019-04-25T22:46:25.880Z,19.67
2019-04-25T22:48:56.813Z,19.70
2019-04-25T22:51:33.012Z,19.71
2019-04-25T22:54:11.721Z,19.67
2019-04-25T22:56:50.219Z,19.60
2019-04-25T22:59:25.766Z,19.56
2019-04-25T23:02:14.665Z,19.52
2019-04-25T23:05:09.233Z,19.51
2019-04-25T23:07:47.205Z,19.47
2019-04-25T23:10:30.217Z,19.44
2019-04-25T23:13:36.295Z,19.36
2019-04-25T23:16:09.023Z,19.32
2019-04-25T23:18:57.442Z,19.30
2019-04-25T23:21:38.574Z,19.26
2019-04-25T23:24:30.158Z,19.21
2019-04-25T23:27:08.059Z,19.15
2019-04-25T23:29:44.505Z,19.12
2019-04-25T23:32:22.988Z,19.13
2019-04-25T23:35:05.699Z,19.08
2019-04-25T23:37:41.431Z,19.03
2019-04-25T23:40:17.760Z,19.10
2019-04-25T23:43:08.366Z,19.03
2019-04-25T23:45:46.311Z,18.91
2019-04-25T23:48:31.516Z,18.97
2019-04-25T23:51:07.525Z,18.95
2019-04-25T23:53:43.575Z,18.91
2019-04-25T23:56:19.325Z,18.84
2019-04-25T23:58:55.467Z,18.84
